createdAt,value
2022-10-01T00:00:26.557Z,100627.22
2022-10-01T00:02:54.557Z,100624.59
2022-10-01T00:05:22.355Z,100619.41
2022-10-01T00:07:49.512Z,100612.22
2022-10-01T00:10:16.754Z,100617.78
2022-10-01T00:13:02.522Z,100613.22
2022-10-01T00:15:29.634Z,100616.84
2022-10-01T00:17:56.689Z,100617.00
2022-10-01T00:20:23.764Z,100611.78
2022-10-01T00:22:52.335Z,100610.84
2022-10-01T00:25:19.423Z,100601.91
2022-10-01T00:27:46.534Z,100596.56
2022-10-01T00:30:13.722Z,100594.00
2022-10-01T00:32:41.285Z,100602.13
2022-10-01T00:35:12.319Z,100603.06
2022-10-01T00:37:39.551Z,100599.50
2022-10-01T00:40:07.113Z,100597.53
2022-10-01T00:42:34.451Z,100605.56
2022-10-01T00:45:02.266Z,100606.41
2022-10-01T00:47:38.087Z,100612.69
2022-10-01T00:50:09.856Z,100599.78
2022-10-01T00:52:39.909Z,100598.28
2022-10-01T00:55:11.941Z,100601.69
2022-10-01T00:57:39.882Z,100607.78
2022-10-01T01:00:08.319Z,100609.56
2022-10-01T01:02:35.655Z,100614.81
2022-10-01T01:05:03.476Z,100622.94
2022-10-01T01:07:31.683Z,100630.16
2022-10-01T01:09:59.135Z,100627.09
2022-10-01T01:12:45.349Z,100624.41
2022-10-01T01:15:19.120Z,100625.16
2022-10-01T01:17:52.107Z,100627.00
2022-10-01T01:20:19.158Z,100620.59
2022-10-01T01:23:04.802Z,100630.72
2022-10-01T01:25:38.329Z,100641.03
2022-10-01T01:28:13.526Z,100646.72
2022-10-01T01:30:41.341Z,100639.84
2022-10-01T01:33:13.053Z,100639.69
2022-10-01T01:35:54.892Z,100645.19
2022-10-01T01:38:24.440Z,100644.97
2022-10-01T01:40:53.075Z,100642.28
2022-10-01T01:43:24.195Z,100651.06
2022-10-01T01:45:52.507Z,100636.22
2022-10-01T01:48:19.647Z,100642.28
2022-10-01T01:50:52.306Z,100644.25
2022-10-01T01:53:20.261Z,100636.41
2022-10-01T01:55:49.352Z,100637.06
2022-10-01T01:58:17.334Z,100636.94
2022-10-01T02:00:45.217Z,100645.03
2022-10-01T02:03:12.378Z,100643.31
2022-10-01T02:05:48.711Z,100638.03
2022-10-01T02:08:18.631Z,100630.38
2022-10-01T02:11:04.138Z,100637.47
2022-10-01T02:13:35.159Z,100637.25
2022-10-01T02:16:05.280Z,100632.59
2022-10-01T02:18:53.010Z,100635.38
2022-10-01T02:21:28.110Z,100635.25
2022-10-01T02:24:01.347Z,100629.16
2022-10-01T02:26:30.236Z,100638.44
2022-10-01T02:29:00.092Z,100637.69
2022-10-01T02:31:29.113Z,100627.53
2022-10-01T02:33:57.770Z,100631.81
2022-10-01T02:36:26.000Z,100637.31
2022-10-01T02:38:54.709Z,100630.78
2022-10-01T02:41:25.063Z,100627.81
2022-10-01T02:44:04.627Z,100627.72
2022-10-01T02:46:50.176Z,100627.09
2022-10-01T02:49:17.372Z,100620.84
2022-10-01T02:51:44.491Z,100617.44
2022-10-01T02:54:16.113Z,100615.91
2022-10-01T02:57:02.435Z,100616.91
2022-10-01T02:59:29.594Z,100618.03
2022-10-01T03:01:56.821Z,100619.69
2022-10-01T03:04:24.078Z,100622.34
2022-10-01T03:06:51.199Z,100631.09
2022-10-01T03:09:18.315Z,100627.69
2022-10-01T03:11:45.882Z,100636.97
2022-10-01T03:14:13.010Z,100641.00
2022-10-01T03:16:40.202Z,100650.31
2022-10-01T03:19:07.311Z,100646.69
2022-10-01T03:21:34.756Z,100655.31
2022-10-01T03:24:02.141Z,100651.34
2022-10-01T03:26:29.283Z,100653.22
2022-10-01T03:28:56.405Z,100654.31
2022-10-01T03:31:23.523Z,100640.16
2022-10-01T03:33:50.670Z,100641.22
2022-10-01T03:36:17.883Z,100646.72
2022-10-01T03:38:45.027Z,100655.81
2022-10-01T03:41:12.122Z,100653.22
2022-10-01T03:43:39.233Z,100656.97
2022-10-01T03:46:06.408Z,100651.59
2022-10-01T03:48:33.541Z,100650.41
2022-10-01T03:51:00.852Z,100650.09
2022-10-01T03:53:27.956Z,100652.53
2022-10-01T03:55:55.177Z,100655.47
2022-10-01T03:58:23.377Z,100660.75
2022-10-01T04:00:50.860Z,100646.66
2022-10-01T04:03:18.407Z,100656.63
2022-10-01T04:05:46.097Z,100661.34
2022-10-01T04:08:13.540Z,100657.16
2022-10-01T04:10:40.722Z,100645.59
2022-10-01T04:13:10.053Z,100647.25
2022-10-01T04:15:37.261Z,100653.59
2022-10-01T04:18:06.041Z,100661.13
2022-10-01T04:20:33.981Z,100663.06
2022-10-01T04:23:01.139Z,100665.75
2022-10-01T04:25:28.913Z,100662.34
2022-10-01T04:28:00.797Z,100656.78
2022-10-01T04:30:33.257Z,100661.00
2022-10-01T04:33:00.473Z,100662.38
2022-10-01T04:35:28.021Z,100664.00
2022-10-01T04:37:55.825Z,100661.28
2022-10-01T04:40:23.433Z,100653.16
2022-10-01T04:42:50.805Z,100658.38
2022-10-01T04:45:18.196Z,100650.28
2022-10-01T04:47:49.175Z,100648.59
2022-10-01T04:50:17.066Z,100638.22
2022-10-01T04:52:47.245Z,100652.88
2022-10-01T04:55:15.412Z,100646.66
2022-10-01T04:57:42.556Z,100643.06
2022-10-01T05:00:11.695Z,100642.19
2022-10-01T05:02:38.815Z,100640.38
2022-10-01T05:05:07.006Z,100637.66
2022-10-01T05:07:34.986Z,100641.75
2022-10-01T05:10:02.135Z,100647.13
2022-10-01T05:12:30.052Z,100645.28
2022-10-01T05:14:57.103Z,100646.06
2022-10-01T05:17:24.277Z,100664.72
2022-10-01T05:19:51.785Z,100660.28
2022-10-01T05:22:19.425Z,100651.28
2022-10-01T05:24:47.490Z,100650.28
2022-10-01T05:27:14.699Z,100660.63
2022-10-01T05:29:42.012Z,100664.03
2022-10-01T05:32:10.108Z,100659.53
2022-10-01T05:34:37.299Z,100661.28
2022-10-01T05:37:04.939Z,100669.94
2022-10-01T05:39:33.162Z,100671.25
2022-10-01T05:42:06.128Z,100676.22
2022-10-01T05:44:37.912Z,100678.41
2022-10-01T05:47:06.267Z,100684.41
2022-10-01T05:49:33.467Z,100686.38
2022-10-01T05:52:01.064Z,100693.38
2022-10-01T05:54:31.780Z,100699.84
2022-10-01T05:56:58.961Z,100700.78
2022-10-01T05:59:30.985Z,100708.81
2022-10-01T06:01:59.113Z,100706.41
2022-10-01T06:04:26.707Z,100714.34
2022-10-01T06:06:54.153Z,100714.34
2022-10-01T06:09:21.266Z,100724.13
2022-10-01T06:11:49.301Z,100732.03
2022-10-01T06:14:16.880Z,100738.03
2022-10-01T06:16:44.097Z,100737.81
2022-10-01T06:19:11.328Z,100740.38
2022-10-01T06:21:38.491Z,100745.78
2022-10-01T06:24:05.815Z,100739.34
2022-10-01T06:26:32.884Z,100741.84
2022-10-01T06:28:59.972Z,100747.25
2022-10-01T06:31:27.651Z,100754.13
2022-10-01T06:33:54.784Z,100757.28
2022-10-01T06:36:21.877Z,100759.53
2022-10-01T06:38:49.440Z,100761.16
2022-10-01T06:41:16.566Z,100752.88
2022-10-01T06:43:43.681Z,100757.16
2022-10-01T06:46:11.261Z,100757.66
2022-10-01T06:48:38.476Z,100760.06
2022-10-01T06:51:05.895Z,100752.91
2022-10-01T06:53:33.066Z,100754.13
2022-10-01T06:56:04.059Z,100756.59
2022-10-01T06:58:31.281Z,100761.69
2022-10-01T07:01:02.321Z,100758.47
2022-10-01T07:03:29.894Z,100768.47
2022-10-01T07:06:01.521Z,100760.38
2022-10-01T07:08:28.821Z,100761.13
2022-10-01T07:10:59.658Z,100774.41
2022-10-01T07:13:26.757Z,100767.03
2022-10-01T07:15:53.857Z,100769.28
2022-10-01T07:18:20.997Z,100778.63
2022-10-01T07:20:48.286Z,100777.63
2022-10-01T07:23:15.683Z,100776.44
2022-10-01T07:25:43.305Z,100775.91
2022-10-01T07:28:16.807Z,100770.50
2022-10-01T07:30:47.451Z,100772.28
2022-10-01T07:33:17.867Z,100775.47
2022-10-01T07:35:47.789Z,100761.06
2022-10-01T07:38:15.220Z,100767.13
2022-10-01T07:40:43.105Z,100772.16
2022-10-01T07:43:10.228Z,100776.56
2022-10-01T07:45:37.376Z,100776.25
2022-10-01T07:48:04.576Z,100785.63
2022-10-01T07:50:31.703Z,100773.41
2022-10-01T07:52:59.272Z,100781.72
2022-10-01T07:55:27.324Z,100778.47
2022-10-01T07:57:55.275Z,100788.34
2022-10-01T08:00:23.679Z,100788.09
2022-10-01T08:02:51.789Z,100777.09
2022-10-01T08:05:20.241Z,100782.31
2022-10-01T08:07:48.212Z,100798.78
2022-10-01T08:10:16.148Z,100806.38
2022-10-01T08:12:43.655Z,100810.66
2022-10-01T08:15:11.985Z,100819.88
2022-10-01T08:17:39.391Z,100817.63
2022-10-01T08:20:07.443Z,100820.09
2022-10-01T08:22:38.578Z,100810.06
2022-10-01T08:25:08.466Z,100807.41
2022-10-01T08:27:35.780Z,100802.75
2022-10-01T08:30:03.363Z,100805.44
2022-10-01T08:32:31.299Z,100801.56
2022-10-01T08:34:59.951Z,100802.59
2022-10-01T08:37:27.950Z,100812.56
2022-10-01T08:39:55.477Z,100806.63
2022-10-01T08:42:41.751Z,100802.50
2022-10-01T08:45:14.296Z,100804.38
2022-10-01T08:47:45.276Z,100795.41
2022-10-01T08:50:16.970Z,100806.47
2022-10-01T08:52:52.893Z,100809.09
2022-10-01T08:55:26.033Z,100811.31
2022-10-01T08:57:59.097Z,100821.13
2022-10-01T09:00:27.355Z,100818.38
2022-10-01T09:02:58.076Z,100817.03
2022-10-01T09:05:31.174Z,100820.09
2022-10-01T09:08:01.470Z,100810.19
2022-10-01T09:10:31.760Z,100822.34
2022-10-01T09:13:11.420Z,100819.75
2022-10-01T09:15:38.578Z,100811.41
2022-10-01T09:18:05.753Z,100816.09
2022-10-01T09:20:38.184Z,100812.06
2022-10-01T09:23:08.181Z,100818.47
2022-10-01T09:25:36.482Z,100825.34
2022-10-01T09:28:14.833Z,100821.47
2022-10-01T09:30:45.160Z,100814.09
2022-10-01T09:33:16.165Z,100808.59
2022-10-01T09:35:49.510Z,100804.38
2022-10-01T09:38:40.221Z,100806.03
2022-10-01T09:41:08.322Z,100799.94
2022-10-01T09:43:38.023Z,100801.84
2022-10-01T09:46:15.591Z,100804.53
2022-10-01T09:48:46.325Z,100806.38
2022-10-01T09:51:22.543Z,100801.13
2022-10-01T09:54:02.264Z,100798.28
2022-10-01T09:56:49.747Z,100794.66
2022-10-01T09:59:27.010Z,100802.72
2022-10-01T10:01:55.961Z,100795.44
2022-10-01T10:04:23.797Z,100795.03
2022-10-01T10:06:53.443Z,100783.50
2022-10-01T10:09:24.379Z,100783.41
2022-10-01T10:11:51.742Z,100777.66
2022-10-01T10:14:29.806Z,100770.63
2022-10-01T10:16:57.446Z,100771.69
2022-10-01T10:19:26.690Z,100763.69
2022-10-01T10:21:56.631Z,100767.53
2022-10-01T10:24:31.275Z,100757.22
2022-10-01T10:26:59.420Z,100757.50
2022-10-01T10:29:33.701Z,100749.63
2022-10-01T10:32:13.642Z,100761.97
2022-10-01T10:34:43.122Z,100753.63
2022-10-01T10:37:18.125Z,100753.19
2022-10-01T10:39:47.825Z,100758.25
2022-10-01T10:42:15.822Z,100749.03
2022-10-01T10:44:46.732Z,100760.50
2022-10-01T10:47:15.225Z,100759.88
2022-10-01T10:49:47.438Z,100752.13
2022-10-01T10:52:32.378Z,100742.91
2022-10-01T10:55:00.568Z,100746.94
2022-10-01T10:57:31.866Z,100745.47
2022-10-01T11:00:06.064Z,100747.19
2022-10-01T11:02:33.872Z,100749.38
2022-10-01T11:05:12.174Z,100746.28
2022-10-01T11:07:43.916Z,100741.59
2022-10-01T11:10:18.788Z,100745.75
2022-10-01T11:12:56.552Z,100739.84
2022-10-01T11:15:35.589Z,100726.97
2022-10-01T11:18:09.344Z,100723.78
2022-10-01T11:20:53.930Z,100722.56
2022-10-01T11:23:24.857Z,100710.19
2022-10-01T11:25:57.156Z,100727.09
2022-10-01T11:28:33.630Z,100731.09
2022-10-01T11:31:26.574Z,100735.66
2022-10-01T11:33:57.897Z,100742.44
2022-10-01T11:36:29.392Z,100750.69
2022-10-01T11:38:56.675Z,100750.97
2022-10-01T11:41:23.893Z,100754.97
2022-10-01T11:43:57.735Z,100751.72
2022-10-01T11:46:28.176Z,100747.78
2022-10-01T11:49:02.384Z,100744.16
2022-10-01T11:51:34.576Z,100749.38
2022-10-01T11:54:05.377Z,100743.53
2022-10-01T11:56:59.763Z,100734.41
2022-10-01T11:59:41.774Z,100724.59
2022-10-01T12:02:09.115Z,100727.88
2022-10-01T12:04:43.363Z,100720.75
2022-10-01T12:07:30.147Z,100725.19
2022-10-01T12:10:14.634Z,100722.59
2022-10-01T12:13:07.446Z,100708.81
2022-10-01T12:15:37.841Z,100704.19
2022-10-01T12:18:14.112Z,100699.41
2022-10-01T12:20:41.258Z,100710.00
2022-10-01T12:23:13.997Z,100707.31
2022-10-01T12:25:49.036Z,100702.09
2022-10-01T12:28:22.258Z,100702.25
2022-10-01T12:30:58.122Z,100694.88
2022-10-01T12:33:31.399Z,100689.97
2022-10-01T12:36:06.739Z,100678.72
2022-10-01T12:38:52.338Z,100667.66
2022-10-01T12:41:23.441Z,100675.47
2022-10-01T12:43:56.516Z,100683.53
2022-10-01T12:46:30.446Z,100678.84
2022-10-01T12:49:07.667Z,100682.81
2022-10-01T12:51:38.236Z,100665.03
2022-10-01T12:54:13.443Z,100668.19
2022-10-01T12:56:45.212Z,100669.84
2022-10-01T12:59:30.879Z,100666.84
2022-10-01T13:02:07.958Z,100666.75
2022-10-01T13:04:42.493Z,100666.66
2022-10-01T13:07:28.665Z,100657.47
2022-10-01T13:10:04.178Z,100646.41
2022-10-01T13:12:36.908Z,100640.81
2022-10-01T13:15:05.682Z,100652.47
2022-10-01T13:17:37.575Z,100643.13
2022-10-01T13:20:22.859Z,100644.00
2022-10-01T13:22:58.357Z,100630.22
2022-10-01T13:25:37.671Z,100632.91
2022-10-01T13:28:14.035Z,100630.38
2022-10-01T13:30:44.237Z,100628.00
2022-10-01T13:33:32.138Z,100627.88
2022-10-01T13:36:00.982Z,100631.19
2022-10-01T13:38:31.357Z,100622.56
2022-10-01T13:41:00.111Z,100634.63
2022-10-01T13:43:29.421Z,100631.91
2022-10-01T13:46:05.100Z,100627.78
2022-10-01T13:48:34.702Z,100616.03
2022-10-01T13:51:05.181Z,100605.03
2022-10-01T13:53:35.387Z,100610.31
2022-10-01T13:56:03.155Z,100611.19
2022-10-01T13:58:30.238Z,100605.88
2022-10-01T14:00:58.831Z,100615.72
2022-10-01T14:03:42.757Z,100621.88
2022-10-01T14:06:19.211Z,100619.09
2022-10-01T14:08:49.416Z,100618.91
2022-10-01T14:11:39.235Z,100607.88
2022-10-01T14:14:30.178Z,100598.44
2022-10-01T14:16:58.931Z,100595.94
2022-10-01T14:19:27.366Z,100596.97
2022-10-01T14:22:00.733Z,100599.03
2022-10-01T14:24:42.963Z,100587.94
2022-10-01T14:27:22.108Z,100592.38
2022-10-01T14:29:49.273Z,100600.53
2022-10-01T14:32:16.407Z,100585.25
2022-10-01T14:34:58.743Z,100581.97
2022-10-01T14:37:26.388Z,100581.84
2022-10-01T14:40:12.992Z,100583.78
2022-10-01T14:42:40.303Z,100578.06
2022-10-01T14:45:14.677Z,100571.81
2022-10-01T14:47:41.755Z,100570.56
2022-10-01T14:50:12.574Z,100574.44
2022-10-01T14:52:41.831Z,100578.19
2022-10-01T14:55:13.546Z,100574.50
2022-10-01T14:57:46.269Z,100567.19
2022-10-01T15:00:18.502Z,100567.47
2022-10-01T15:02:48.642Z,100569.22
2022-10-01T15:05:20.412Z,100580.97
2022-10-01T15:07:47.849Z,100565.75
2022-10-01T15:10:19.382Z,100567.28
2022-10-01T15:12:47.724Z,100573.25
2022-10-01T15:15:33.476Z,100563.31
2022-10-01T15:18:03.253Z,100560.03
2022-10-01T15:20:30.598Z,100561.81
2022-10-01T15:23:01.418Z,100566.50
2022-10-01T15:25:31.449Z,100561.97
2022-10-01T15:27:59.007Z,100559.28
2022-10-01T15:30:27.756Z,100555.59
2022-10-01T15:32:54.993Z,100558.41
2022-10-01T15:35:23.499Z,100556.69
2022-10-01T15:37:51.573Z,100567.28
2022-10-01T15:40:29.710Z,100569.03
2022-10-01T15:43:08.921Z,100559.16
2022-10-01T15:46:13.190Z,100566.63
2022-10-01T15:48:40.361Z,100561.59
2022-10-01T15:51:13.320Z,100565.38
2022-10-01T15:53:40.588Z,100577.25
2022-10-01T15:56:10.553Z,100576.28
2022-10-01T15:58:43.183Z,100562.22
2022-10-01T16:01:12.236Z,100575.69
2022-10-01T16:03:41.658Z,100574.06
2022-10-01T16:06:17.305Z,100564.47
2022-10-01T16:09:02.955Z,100564.75
2022-10-01T16:11:33.255Z,100554.91
2022-10-01T16:14:18.884Z,100559.66
2022-10-01T16:16:46.097Z,100560.78
2022-10-01T16:19:19.093Z,100557.44
2022-10-01T16:22:06.234Z,100570.28
2022-10-01T16:24:41.072Z,100552.53
2022-10-01T16:27:12.391Z,100544.63
2022-10-01T16:29:39.665Z,100553.75
2022-10-01T16:32:08.857Z,100565.78
2022-10-01T16:34:36.020Z,100567.94
2022-10-01T16:37:07.025Z,100582.56
2022-10-01T16:39:34.243Z,100583.72
2022-10-01T16:42:22.824Z,100581.19
2022-10-01T16:44:49.797Z,100586.13
2022-10-01T16:47:16.924Z,100568.38
2022-10-01T16:49:45.123Z,100568.94
2022-10-01T16:52:13.711Z,100570.22
2022-10-01T16:54:40.797Z,100578.47
2022-10-01T16:57:08.404Z,100583.19
2022-10-01T16:59:35.582Z,100591.56
2022-10-01T17:02:02.826Z,100601.06
2022-10-01T17:04:34.105Z,100607.69
2022-10-01T17:07:01.693Z,100613.44
2022-10-01T17:09:29.178Z,100600.53
2022-10-01T17:11:56.437Z,100596.25
2022-10-01T17:14:24.177Z,100592.00
2022-10-01T17:16:53.429Z,100603.72
2022-10-01T17:19:21.869Z,100612.16
2022-10-01T17:21:49.024Z,100616.94
2022-10-01T17:24:16.270Z,100617.03
2022-10-01T17:26:45.429Z,100624.34
2022-10-01T17:29:13.120Z,100629.03
2022-10-01T17:31:40.995Z,100637.22
2022-10-01T17:34:08.401Z,100641.97
2022-10-01T17:36:35.741Z,100645.63
2022-10-01T17:39:03.249Z,100645.00
2022-10-01T17:41:30.646Z,100638.66
2022-10-01T17:44:00.860Z,100647.88
2022-10-01T17:46:29.140Z,100648.16
2022-10-01T17:48:56.428Z,100657.44
2022-10-01T17:51:23.834Z,100647.88
2022-10-01T17:53:51.128Z,100649.78
2022-10-01T17:56:18.930Z,100651.88
2022-10-01T17:58:46.396Z,100651.00
2022-10-01T18:01:15.359Z,100659.09
2022-10-01T18:03:42.679Z,100646.75
2022-10-01T18:06:13.756Z,100654.31
2022-10-01T18:08:54.510Z,100676.16
2022-10-01T18:11:22.644Z,100675.59
2022-10-01T18:13:50.478Z,100680.31
2022-10-01T18:16:19.362Z,100697.53
2022-10-01T18:21:34.366Z,100697.81
2022-10-01T18:24:04.502Z,100710.56
2022-10-01T18:26:32.629Z,100713.31
2022-10-01T18:29:00.333Z,100707.19
2022-10-01T18:31:31.383Z,100718.69
2022-10-01T18:33:59.672Z,100714.16
2022-10-01T18:36:32.753Z,100723.84
2022-10-01T18:39:23.570Z,100712.91
2022-10-01T18:41:51.225Z,100719.06
2022-10-01T18:44:20.466Z,100711.94
2022-10-01T18:46:50.672Z,100710.22
2022-10-01T18:49:21.294Z,100712.03
2022-10-01T18:51:51.209Z,100710.22
2022-10-01T18:54:27.099Z,100716.81
2022-10-01T18:57:00.301Z,100716.00
2022-10-01T18:59:41.228Z,100707.19
2022-10-01T19:02:14.687Z,100713.59
2022-10-01T19:04:41.940Z,100715.34
2022-10-01T19:07:47.565Z,100724.28
2022-10-01T19:10:32.947Z,100718.03
2022-10-01T19:13:19.095Z,100726.28
2022-10-01T19:15:46.417Z,100731.78
2022-10-01T19:18:13.578Z,100729.28
2022-10-01T19:20:46.680Z,100726.03
2022-10-01T19:23:32.668Z,100720.56
2022-10-01T19:26:07.571Z,100729.50
2022-10-01T19:28:53.376Z,100727.94
2022-10-01T19:31:32.629Z,100722.84
2022-10-01T19:34:09.552Z,100726.50
2022-10-01T19:36:38.828Z,100723.81
2022-10-01T19:39:12.477Z,100734.72
2022-10-01T19:41:44.487Z,100736.84
2022-10-01T19:44:37.683Z,100750.38
2022-10-01T19:47:23.691Z,100745.09
2022-10-01T19:49:52.456Z,100739.06
2022-10-01T19:52:20.058Z,100738.59
2022-10-01T19:54:51.473Z,100742.38
2022-10-01T19:57:22.449Z,100744.25
2022-10-01T19:59:51.249Z,100747.19
2022-10-01T20:02:31.211Z,100741.09
2022-10-01T20:05:00.917Z,100738.56
2022-10-01T20:07:29.963Z,100746.09
2022-10-01T20:10:05.566Z,100754.31
2022-10-01T20:12:38.605Z,100752.19
2022-10-01T20:15:12.623Z,100758.59
2022-10-01T20:17:56.004Z,100755.88
2022-10-01T20:20:40.169Z,100762.56
2022-10-01T20:23:24.337Z,100762.56
2022-10-01T20:26:10.375Z,100757.94
2022-10-01T20:28:56.585Z,100767.09
2022-10-01T20:31:39.494Z,100774.34
2022-10-01T20:34:12.731Z,100781.97
2022-10-01T20:36:40.076Z,100785.31
2022-10-01T20:39:17.543Z,100774.00
2022-10-01T20:41:48.849Z,100784.31
2022-10-01T20:44:21.797Z,100782.19
2022-10-01T20:46:51.976Z,100792.38
2022-10-01T20:49:38.575Z,100782.78
2022-10-01T20:52:05.643Z,100786.06
2022-10-01T20:54:36.692Z,100775.59
2022-10-01T20:57:20.208Z,100781.66
2022-10-01T20:59:51.356Z,100775.47
2022-10-01T21:02:21.535Z,100793.69
2022-10-01T21:04:52.117Z,100789.25
2022-10-01T21:07:23.206Z,100786.50
2022-10-01T21:09:52.461Z,100805.56
2022-10-01T21:12:40.255Z,100796.97
2022-10-01T21:15:11.522Z,100794.72
2022-10-01T21:18:03.624Z,100807.50
2022-10-01T21:20:50.346Z,100816.50
2022-10-01T21:23:31.122Z,100823.38
2022-10-01T21:25:58.429Z,100828.19
2022-10-01T21:28:43.724Z,100823.06
2022-10-01T21:31:22.980Z,100823.94
2022-10-01T21:33:51.952Z,100831.84
2022-10-01T21:36:34.260Z,100824.88
2022-10-01T21:39:09.925Z,100824.16
2022-10-01T21:41:56.101Z,100830.66
2022-10-01T21:44:52.578Z,100831.94
2022-10-01T21:47:38.417Z,100838.94
2022-10-01T21:50:12.080Z,100849.44
2022-10-01T21:52:58.163Z,100837.16
2022-10-01T21:55:35.434Z,100847.09
2022-10-01T21:58:08.620Z,100848.91
2022-10-01T22:00:35.804Z,100849.44
2022-10-01T22:03:02.897Z,100850.13
2022-10-01T22:05:52.979Z,100853.31
2022-10-01T22:08:23.324Z,100860.88
2022-10-01T22:10:51.645Z,100855.09
2022-10-01T22:13:22.823Z,100848.25
2022-10-01T22:15:52.503Z,100840.56
2022-10-01T22:18:38.509Z,100853.66
2022-10-01T22:21:09.188Z,100853.84
2022-10-01T22:23:57.985Z,100852.03
2022-10-01T22:26:27.822Z,100855.34
2022-10-01T22:28:56.003Z,100852.28
2022-10-01T22:31:26.933Z,100858.44
2022-10-01T22:34:14.552Z,100866.50
2022-10-01T22:36:46.129Z,100851.75
2022-10-01T22:39:22.418Z,100849.59
2022-10-01T22:41:52.663Z,100850.94
2022-10-01T22:44:20.814Z,100854.28
2022-10-01T22:46:48.300Z,100855.47
2022-10-01T22:49:22.407Z,100856.84
2022-10-01T22:52:08.532Z,100858.06
2022-10-01T22:54:54.687Z,100868.78
2022-10-01T22:57:21.813Z,100873.34
2022-10-01T23:00:01.647Z,100861.47
2022-10-01T23:02:33.069Z,100859.41
2022-10-01T23:05:09.735Z,100876.25
2022-10-01T23:07:55.872Z,100884.88
2022-10-01T23:10:23.186Z,100893.41
2022-10-01T23:12:57.730Z,100888.06
2022-10-01T23:15:36.136Z,100901.47
2022-10-01T23:18:23.560Z,100897.72
2022-10-01T23:21:00.034Z,100895.72
2022-10-01T23:23:27.148Z,100916.22
2022-10-01T23:25:57.403Z,100915.31
2022-10-01T23:28:33.544Z,100919.75
2022-10-01T23:31:00.660Z,100920.56
2022-10-01T23:33:53.852Z,100924.03
2022-10-01T23:36:32.840Z,100924.72
2022-10-01T23:39:00.038Z,100933.56
2022-10-01T23:41:34.189Z,100924.72
2022-10-01T23:44:08.065Z,100931.13
2022-10-01T23:46:35.735Z,100939.25
2022-10-01T23:49:23.931Z,100942.16
2022-10-01T23:52:14.133Z,100940.44
2022-10-01T23:54:41.353Z,100938.38
2022-10-01T23:57:18.094Z,100939.13
